Terminal Aerodrome Forecast
Issued by NWS

Home | Current Version | Previous Version | Text Only | Print | Product List | Glossary On
Versions: 1 2 3 4 5 6 7 8 9 10 11 12 13 14 15 16 17 18 19 20 21 22 23 24 25 26
556
FTAK31 PAFA 251134
TAFAOM
TAF
PAOM 251134Z 2512/2612 34006KT P6SM SCT050 SCT250
     FM252100 24010KT P6SM BKN035 OVC050
     FM260000 21008KT P6SM BKN025 OVC035=

USA.gov is the U.S. government's official web portal to all federal, state and local government web resources and services.